createdAt,value
2019-04-06T00:00:16.980Z,14.10
2019-04-06T00:01:29.681Z,14.11
2019-04-06T00:02:39.517Z,14.10
2019-04-06T00:03:47.681Z,14.11
2019-04-06T00:04:55.956Z,14.08
2019-04-06T00:06:04.200Z,14.04
2019-04-06T00:07:12.547Z,14.02
2019-04-06T00:08:21.114Z,14.00
2019-04-06T00:09:29.090Z,13.96
2019-04-06T00:10:37.363Z,13.96
2019-04-06T00:11:45.815Z,13.94
2019-04-06T00:12:53.961Z,13.79
2019-04-06T00:14:02.011Z,13.73
2019-04-06T00:15:10.454Z,13.67
2019-04-06T00:16:19.065Z,13.68
2019-04-06T00:17:27.371Z,13.71
2019-04-06T00:18:35.620Z,13.72
2019-04-06T00:19:44.075Z,13.73
2019-04-06T00:20:52.513Z,13.76
2019-04-06T00:22:00.962Z,13.77
2019-04-06T00:23:09.421Z,13.78
2019-04-06T00:24:17.585Z,13.77
2019-04-06T00:25:25.736Z,13.72
2019-04-06T00:26:34.031Z,13.69
2019-04-06T00:27:42.138Z,13.68
2019-04-06T00:28:50.487Z,13.71
2019-04-06T00:29:59.145Z,13.72
2019-04-06T00:31:24.985Z,13.69
2019-04-06T00:32:35.106Z,13.69
2019-04-06T00:33:43.375Z,13.69
2019-04-06T00:34:51.594Z,13.72
2019-04-06T00:36:00.111Z,13.70
2019-04-06T00:37:08.204Z,13.73
2019-04-06T00:38:16.914Z,13.70
2019-04-06T00:39:25.004Z,13.71
2019-04-06T00:40:33.122Z,13.71
2019-04-06T00:41:41.432Z,13.67
2019-04-06T00:42:49.527Z,13.62
2019-04-06T00:43:57.802Z,13.62
2019-04-06T00:45:07.863Z,13.65
2019-04-06T00:46:16.611Z,13.63
2019-04-06T00:47:24.973Z,13.62
2019-04-06T00:48:33.072Z,13.64
2019-04-06T00:49:41.142Z,13.63
2019-04-06T00:50:49.373Z,13.59
2019-04-06T00:51:57.389Z,13.60
2019-04-06T00:53:05.584Z,13.55
2019-04-06T00:54:13.862Z,13.57
2019-04-06T00:55:22.510Z,13.57
2019-04-06T00:56:30.514Z,13.61
2019-04-06T00:57:38.592Z,13.61
2019-04-06T00:58:46.707Z,13.63
2019-04-06T00:59:54.951Z,13.63
2019-04-06T01:01:03.171Z,13.64
2019-04-06T01:02:11.567Z,13.66
2019-04-06T01:03:20.218Z,13.66
2019-04-06T01:04:28.797Z,13.61
2019-04-06T01:05:36.889Z,13.58
2019-04-06T01:06:45.368Z,13.55
2019-04-06T01:07:53.624Z,13.56
2019-04-06T01:09:02.161Z,13.57
2019-04-06T01:10:10.734Z,13.57
2019-04-06T01:11:19.405Z,13.59
2019-04-06T01:12:27.919Z,13.56
2019-04-06T01:13:36.108Z,13.57
2019-04-06T01:14:44.341Z,13.53
2019-04-06T01:15:52.638Z,13.48
2019-04-06T01:17:00.839Z,13.50
2019-04-06T01:18:09.361Z,13.49
2019-04-06T01:19:17.984Z,13.45
2019-04-06T01:20:25.968Z,13.39
2019-04-06T01:21:34.115Z,13.40
2019-04-06T01:22:42.398Z,13.37
2019-04-06T01:23:50.718Z,13.35
2019-04-06T01:24:58.832Z,13.35
2019-04-06T01:26:07.789Z,13.34
2019-04-06T01:27:16.174Z,13.34
2019-04-06T01:28:24.438Z,13.31
2019-04-06T01:29:32.618Z,13.28
2019-04-06T01:30:40.730Z,13.27
2019-04-06T01:31:49.135Z,13.29
2019-04-06T01:32:57.194Z,13.31
2019-04-06T01:34:05.678Z,13.34
2019-04-06T01:35:13.890Z,13.36
2019-04-06T01:36:22.124Z,13.37
2019-04-06T01:37:30.646Z,13.37
2019-04-06T01:38:38.847Z,13.34
2019-04-06T01:39:47.007Z,13.34
2019-04-06T01:40:55.245Z,13.34
2019-04-06T01:42:03.506Z,13.33
2019-04-06T01:43:11.738Z,13.32
2019-04-06T01:44:19.662Z,13.34
2019-04-06T01:45:27.838Z,13.35
2019-04-06T01:46:36.068Z,13.37
2019-04-06T01:47:44.514Z,13.37
2019-04-06T01:48:52.738Z,13.37
2019-04-06T01:50:00.871Z,13.33
2019-04-06T01:51:09.130Z,13.29
2019-04-06T01:52:17.541Z,13.28
2019-04-06T01:53:25.718Z,13.23
2019-04-06T01:54:33.917Z,13.27
2019-04-06T01:55:41.901Z,13.28
2019-04-06T01:56:50.147Z,13.27
2019-04-06T01:57:58.468Z,13.25
2019-04-06T01:59:06.647Z,13.28
2019-04-06T02:00:16.186Z,13.29
2019-04-06T02:01:26.026Z,13.25
2019-04-06T02:02:35.646Z,13.25
2019-04-06T02:03:43.956Z,13.22
2019-04-06T02:04:51.971Z,13.20
2019-04-06T02:06:00.276Z,13.24
2019-04-06T02:07:08.353Z,13.23
2019-04-06T02:08:16.501Z,13.27
2019-04-06T02:09:24.653Z,13.26
2019-04-06T02:10:32.743Z,13.27
2019-04-06T02:11:41.050Z,13.23
2019-04-06T02:12:49.319Z,13.21
2019-04-06T02:13:57.649Z,13.16
2019-04-06T02:15:07.801Z,13.16
2019-04-06T02:16:16.105Z,13.16
2019-04-06T02:17:24.804Z,13.15
2019-04-06T02:18:32.900Z,13.16
2019-04-06T02:19:40.970Z,13.17
2019-04-06T02:20:49.155Z,13.19
2019-04-06T02:21:57.599Z,13.18
2019-04-06T02:23:05.707Z,13.17
2019-04-06T02:24:14.003Z,13.17
2019-04-06T02:25:22.421Z,13.17
2019-04-06T02:26:31.316Z,13.14
2019-04-06T02:27:39.727Z,13.17
2019-04-06T02:28:47.982Z,13.18
2019-04-06T02:30:01.171Z,13.18
2019-04-06T02:31:14.588Z,13.20
2019-04-06T02:32:37.017Z,13.23
2019-04-06T02:34:03.144Z,13.17
2019-04-06T02:35:14.031Z,13.17
2019-04-06T02:36:29.744Z,13.16
2019-04-06T02:37:39.345Z,13.18
2019-04-06T02:38:49.148Z,13.19
2019-04-06T02:39:58.759Z,13.13
2019-04-06T02:41:17.466Z,13.16
2019-04-06T02:42:30.274Z,13.14
2019-04-06T02:43:42.300Z,13.17
2019-04-06T02:44:50.437Z,13.17
2019-04-06T02:45:59.106Z,13.13
2019-04-06T02:47:07.524Z,13.06
2019-04-06T02:48:15.998Z,13.06
2019-04-06T02:49:24.533Z,13.03
2019-04-06T02:50:33.069Z,13.02
2019-04-06T02:51:41.359Z,12.97
2019-04-06T02:52:49.451Z,12.95
2019-04-06T02:53:57.705Z,12.98
2019-04-06T02:55:06.630Z,13.01
2019-04-06T02:56:14.949Z,12.97
2019-04-06T02:57:23.139Z,12.97
2019-04-06T02:58:31.692Z,12.94
2019-04-06T02:59:39.860Z,12.90
2019-04-06T03:00:48.064Z,12.80
2019-04-06T03:01:56.185Z,12.81
2019-04-06T03:03:04.443Z,12.80
2019-04-06T03:04:12.864Z,12.81
2019-04-06T03:05:21.251Z,12.82
2019-04-06T03:06:29.759Z,12.83
2019-04-06T03:07:38.169Z,12.84
2019-04-06T03:08:47.048Z,12.85
2019-04-06T03:09:55.385Z,12.83
2019-04-06T03:11:03.680Z,12.83
2019-04-06T03:12:11.984Z,12.82
2019-04-06T03:13:20.266Z,12.81
2019-04-06T03:14:28.894Z,12.77
2019-04-06T03:15:37.664Z,12.80
2019-04-06T03:16:45.792Z,12.79
2019-04-06T03:17:54.124Z,12.76
2019-04-06T03:19:02.204Z,12.73
2019-04-06T03:20:10.512Z,12.75
2019-04-06T03:21:19.291Z,12.72
2019-04-06T03:22:27.891Z,12.71
2019-04-06T03:23:49.665Z,12.69
2019-04-06T03:24:46.064Z,12.68
2019-04-06T03:25:54.560Z,12.64
2019-04-06T03:27:02.946Z,12.62
2019-04-06T03:28:11.406Z,12.66
2019-04-06T03:29:19.596Z,12.67
2019-04-06T03:30:28.310Z,12.67
2019-04-06T03:31:36.566Z,12.68
2019-04-06T03:32:44.828Z,12.65
2019-04-06T03:33:53.170Z,12.64
2019-04-06T03:35:01.613Z,12.61
2019-04-06T03:36:10.173Z,12.61
2019-04-06T03:37:18.585Z,12.60
2019-04-06T03:38:26.971Z,12.54
2019-04-06T03:39:35.145Z,12.52
2019-04-06T03:40:43.326Z,12.52
2019-04-06T03:41:51.322Z,12.53
2019-04-06T03:43:00.576Z,12.57
2019-04-06T03:44:09.168Z,12.57
2019-04-06T03:45:17.333Z,12.57
2019-04-06T03:46:26.051Z,12.53
2019-04-06T03:47:34.181Z,12.50
2019-04-06T03:48:42.369Z,12.52
2019-04-06T03:49:50.718Z,12.51
2019-04-06T03:50:58.951Z,12.50
2019-04-06T03:52:07.894Z,12.49
2019-04-06T03:53:16.204Z,12.47
2019-04-06T03:54:24.466Z,12.50
2019-04-06T03:55:33.099Z,12.51
2019-04-06T03:56:41.301Z,12.45
2019-04-06T03:57:49.354Z,12.43
2019-04-06T03:58:57.528Z,12.45
2019-04-06T04:00:06.824Z,12.46
2019-04-06T04:01:15.226Z,12.42
2019-04-06T04:02:24.000Z,12.42
2019-04-06T04:03:32.436Z,12.36
2019-04-06T04:04:40.932Z,12.38
2019-04-06T04:05:48.991Z,12.38
2019-04-06T04:06:57.423Z,12.31
2019-04-06T04:08:05.753Z,12.33
2019-04-06T04:09:14.019Z,12.30
2019-04-06T04:10:35.987Z,12.29
2019-04-06T04:11:44.121Z,12.26
2019-04-06T04:12:52.874Z,12.22
2019-04-06T04:14:00.994Z,12.18
2019-04-06T04:15:09.539Z,12.17
2019-04-06T04:16:17.685Z,12.14
2019-04-06T04:17:25.980Z,12.07
2019-04-06T04:18:34.099Z,12.03
2019-04-06T04:19:42.171Z,11.99
2019-04-06T04:20:50.698Z,12.01
2019-04-06T04:21:59.100Z,12.00
2019-04-06T04:23:07.658Z,11.94
2019-04-06T04:24:15.999Z,11.95
2019-04-06T04:25:24.399Z,11.99
2019-04-06T04:26:32.516Z,12.00
2019-04-06T04:27:41.942Z,11.97
2019-04-06T04:28:50.334Z,11.97
2019-04-06T04:29:58.434Z,11.99
2019-04-06T04:31:06.753Z,12.00
2019-04-06T04:32:14.923Z,12.02
2019-04-06T04:33:23.537Z,12.05
2019-04-06T04:34:32.138Z,12.06
2019-04-06T04:35:40.711Z,12.00
2019-04-06T04:36:49.075Z,11.97
2019-04-06T04:37:57.410Z,11.96
2019-04-06T04:39:08.139Z,11.95
2019-04-06T04:40:16.679Z,11.95
2019-04-06T04:41:24.713Z,11.93
2019-04-06T04:42:32.765Z,11.91
2019-04-06T04:43:41.525Z,11.95
2019-04-06T04:44:49.830Z,11.94
2019-04-06T04:45:58.038Z,11.98
2019-04-06T04:47:06.247Z,11.94
2019-04-06T04:48:14.587Z,12.00
2019-04-06T04:49:22.771Z,12.00
2019-04-06T04:50:31.006Z,11.99
2019-04-06T04:51:39.533Z,11.99
2019-04-06T04:52:47.946Z,11.99
2019-04-06T04:53:55.972Z,12.01
2019-04-06T04:55:05.057Z,12.06
2019-04-06T04:56:13.494Z,12.12
2019-04-06T04:57:21.923Z,12.16
2019-04-06T04:58:30.107Z,12.11
2019-04-06T04:59:38.546Z,12.11
2019-04-06T05:00:46.924Z,12.08
2019-04-06T05:01:55.231Z,12.09
2019-04-06T05:03:03.891Z,12.08
2019-04-06T05:04:12.489Z,12.11
2019-04-06T05:05:21.034Z,12.13
2019-04-06T05:06:29.421Z,12.03
2019-04-06T05:07:38.234Z,12.04
2019-04-06T05:08:46.313Z,12.01
2019-04-06T05:09:54.563Z,11.99
2019-04-06T05:11:02.753Z,11.98
2019-04-06T05:12:10.927Z,11.97
2019-04-06T05:13:19.471Z,11.96
2019-04-06T05:15:04.152Z,11.99
2019-04-06T05:16:16.016Z,11.99
2019-04-06T05:17:24.308Z,11.99
2019-04-06T05:18:33.080Z,11.99
2019-04-06T05:19:41.375Z,12.05
2019-04-06T05:20:49.495Z,12.08
2019-04-06T05:21:57.689Z,12.04
2019-04-06T05:23:05.744Z,12.02
2019-04-06T05:24:14.264Z,11.97
2019-04-06T05:25:22.588Z,11.99
2019-04-06T05:26:37.830Z,11.97
2019-04-06T05:27:51.246Z,12.00
2019-04-06T05:28:52.643Z,11.95
2019-04-06T05:30:01.156Z,11.88
2019-04-06T05:31:09.712Z,11.81
2019-04-06T05:32:17.775Z,11.80
2019-04-06T05:33:26.125Z,11.77
2019-04-06T05:34:34.457Z,11.77
2019-04-06T05:35:43.035Z,11.80
2019-04-06T05:36:51.428Z,11.76
2019-04-06T05:38:00.110Z,11.74
2019-04-06T05:39:08.445Z,11.72
2019-04-06T05:40:17.191Z,11.79
2019-04-06T05:41:25.665Z,11.83
2019-04-06T05:42:33.762Z,11.86
2019-04-06T05:43:42.103Z,11.87
2019-04-06T05:44:50.402Z,11.85
2019-04-06T05:45:59.159Z,11.94
2019-04-06T05:47:07.630Z,11.93
2019-04-06T05:48:15.775Z,11.94
2019-04-06T05:49:24.154Z,11.88
2019-04-06T05:50:32.754Z,11.92
2019-04-06T05:51:40.919Z,11.99
2019-04-06T05:52:49.128Z,12.02
2019-04-06T05:53:57.969Z,12.04
2019-04-06T05:55:07.275Z,12.05
2019-04-06T05:56:15.779Z,12.08
2019-04-06T05:57:24.683Z,12.10
2019-04-06T05:58:33.086Z,12.15
2019-04-06T05:59:41.625Z,12.18
2019-04-06T06:00:50.069Z,12.21
2019-04-06T06:01:58.144Z,12.21
2019-04-06T06:03:06.360Z,12.18
2019-04-06T06:04:14.928Z,12.14
2019-04-06T06:05:23.642Z,12.17
2019-04-06T06:06:32.761Z,12.18
2019-04-06T06:07:41.273Z,12.20
2019-04-06T06:08:49.509Z,12.20
2019-04-06T06:09:58.063Z,12.21
2019-04-06T06:11:06.736Z,12.22
2019-04-06T06:12:15.986Z,12.18
2019-04-06T06:13:24.545Z,12.23
2019-04-06T06:14:33.024Z,12.18
2019-04-06T06:15:41.412Z,12.17
2019-04-06T06:16:50.165Z,12.13
2019-04-06T06:17:58.696Z,12.15
2019-04-06T06:19:06.970Z,12.11
2019-04-06T06:20:16.186Z,12.11
2019-04-06T06:21:24.438Z,12.07
2019-04-06T06:22:32.668Z,12.09
2019-04-06T06:23:40.841Z,12.10
2019-04-06T06:24:49.316Z,12.11
2019-04-06T06:25:57.565Z,12.11
2019-04-06T06:27:06.534Z,12.16
2019-04-06T06:28:15.565Z,12.14
2019-04-06T06:29:24.641Z,12.18
2019-04-06T06:30:33.620Z,12.12
2019-04-06T06:31:42.081Z,12.06
2019-04-06T06:32:50.525Z,12.06
2019-04-06T06:33:58.974Z,12.04
2019-04-06T06:35:08.320Z,12.09
2019-04-06T06:36:16.664Z,12.17
2019-04-06T06:37:25.184Z,12.13
2019-04-06T06:38:34.314Z,12.22
2019-04-06T06:39:45.147Z,12.23
2019-04-06T06:40:53.453Z,12.24
2019-04-06T06:42:02.071Z,12.24
2019-04-06T06:43:10.669Z,12.27
2019-04-06T06:44:19.161Z,12.29
2019-04-06T06:45:27.474Z,12.34
2019-04-06T06:46:36.295Z,12.41
2019-04-06T06:47:44.937Z,12.41
2019-04-06T06:48:53.311Z,12.46
2019-04-06T06:50:02.024Z,12.47
2019-04-06T06:51:10.982Z,12.52
2019-04-06T06:52:19.337Z,12.59
2019-04-06T06:53:27.996Z,12.59
2019-04-06T06:54:36.463Z,12.60
2019-04-06T06:55:45.044Z,12.66
2019-04-06T06:56:53.553Z,12.68
2019-04-06T06:58:01.888Z,12.67
2019-04-06T06:59:10.332Z,12.62
2019-04-06T07:00:19.203Z,12.59
2019-04-06T07:01:28.163Z,12.56
2019-04-06T07:02:36.780Z,12.55
2019-04-06T07:03:45.343Z,12.57
2019-04-06T07:04:54.093Z,12.62
2019-04-06T07:06:02.444Z,12.65
2019-04-06T07:07:11.012Z,12.70
2019-04-06T07:08:19.586Z,12.74
2019-04-06T07:09:28.280Z,12.80
2019-04-06T07:10:36.777Z,12.85
2019-04-06T07:11:45.292Z,12.83
2019-04-06T07:12:53.526Z,12.88
2019-04-06T07:14:02.592Z,12.92
2019-04-06T07:15:12.456Z,13.00
2019-04-06T07:16:20.951Z,13.03
2019-04-06T07:17:29.330Z,12.98
2019-04-06T07:18:37.850Z,13.00
2019-04-06T07:19:46.781Z,13.01
2019-04-06T07:20:55.299Z,13.06
2019-04-06T07:22:03.787Z,12.97
2019-04-06T07:23:12.116Z,12.98
2019-04-06T07:24:20.409Z,12.97
2019-04-06T07:25:29.017Z,12.96
2019-04-06T07:26:37.870Z,12.94
2019-04-06T07:27:46.328Z,12.89
2019-04-06T07:28:54.748Z,12.87
2019-04-06T07:30:03.135Z,12.85
2019-04-06T07:31:12.413Z,12.86
2019-04-06T07:32:20.932Z,12.86
2019-04-06T07:33:29.224Z,12.87
2019-04-06T07:34:37.391Z,12.87
2019-04-06T07:35:46.075Z,12.90
2019-04-06T07:36:54.686Z,12.94
2019-04-06T07:38:03.085Z,12.93
2019-04-06T07:39:11.421Z,12.96
2019-04-06T07:40:19.854Z,12.99
2019-04-06T07:41:28.238Z,13.03
2019-04-06T07:42:36.898Z,13.07
2019-04-06T07:43:45.620Z,13.14
2019-04-06T07:44:53.915Z,13.19
2019-04-06T07:46:01.920Z,13.24
2019-04-06T07:47:10.602Z,13.23
2019-04-06T07:48:18.824Z,13.29
2019-04-06T07:49:27.026Z,13.36
2019-04-06T07:50:35.510Z,13.37
2019-04-06T07:51:43.867Z,13.36
2019-04-06T07:52:52.232Z,13.32
2019-04-06T07:54:00.749Z,13.33
2019-04-06T07:55:09.665Z,13.31
2019-04-06T07:56:20.463Z,13.31
2019-04-06T07:57:28.316Z,13.27
2019-04-06T07:58:47.487Z,13.24
2019-04-06T07:59:47.153Z,13.26
2019-04-06T08:00:55.370Z,13.25
2019-04-06T08:02:03.712Z,13.24
2019-04-06T08:03:12.075Z,13.26
2019-04-06T08:04:20.322Z,13.26
2019-04-06T08:05:28.903Z,13.28
2019-04-06T08:06:37.710Z,13.30
2019-04-06T08:07:46.622Z,13.27
2019-04-06T08:08:55.195Z,13.29
2019-04-06T08:10:03.920Z,13.29
2019-04-06T08:11:12.682Z,13.26
2019-04-06T08:12:21.216Z,13.23
2019-04-06T08:13:29.733Z,13.21
2019-04-06T08:14:38.256Z,13.18
2019-04-06T08:15:46.789Z,13.19
2019-04-06T08:16:55.426Z,13.20
2019-04-06T08:18:03.881Z,13.22
2019-04-06T08:19:12.651Z,13.22
2019-04-06T08:20:21.214Z,13.21
2019-04-06T08:21:30.314Z,13.25
2019-04-06T08:22:38.788Z,13.27
2019-04-06T08:23:47.570Z,13.24
2019-04-06T08:24:55.987Z,13.28
2019-04-06T08:26:04.323Z,13.20
2019-04-06T08:27:12.706Z,13.26
2019-04-06T08:28:21.392Z,13.29
2019-04-06T08:29:30.142Z,13.29
2019-04-06T08:30:45.310Z,13.33
2019-04-06T08:31:48.920Z,13.37
2019-04-06T08:32:57.189Z,13.36
2019-04-06T08:34:05.623Z,13.27
2019-04-06T08:35:24.766Z,13.28
2019-04-06T08:36:24.280Z,13.28
2019-04-06T08:37:32.405Z,13.30
2019-04-06T08:38:40.878Z,13.29
2019-04-06T08:39:49.548Z,13.34
2019-04-06T08:40:58.205Z,13.37
2019-04-06T08:42:06.191Z,13.39
2019-04-06T08:43:15.311Z,13.36
2019-04-06T08:44:23.687Z,13.37
2019-04-06T08:45:32.019Z,13.33
2019-04-06T08:46:40.898Z,13.33
2019-04-06T08:47:49.172Z,13.32
2019-04-06T08:48:57.867Z,13.35
2019-04-06T08:50:10.206Z,13.42
2019-04-06T08:51:18.566Z,13.46
2019-04-06T08:52:26.914Z,13.52
2019-04-06T08:53:34.957Z,13.58
2019-04-06T08:54:43.357Z,13.62
2019-04-06T08:55:52.378Z,13.65
2019-04-06T08:57:00.675Z,13.66
2019-04-06T08:58:08.983Z,13.66
2019-04-06T08:59:17.389Z,13.72
2019-04-06T09:00:25.788Z,13.74
2019-04-06T09:01:34.352Z,13.72
2019-04-06T09:02:42.739Z,13.73
2019-04-06T09:03:51.429Z,13.71
2019-04-06T09:04:59.667Z,13.74
2019-04-06T09:06:07.959Z,13.73
2019-04-06T09:07:16.216Z,13.75
2019-04-06T09:08:24.745Z,13.76
2019-04-06T09:09:32.919Z,13.78
2019-04-06T09:10:41.543Z,13.84
2019-04-06T09:11:50.358Z,13.85
2019-04-06T09:12:58.490Z,13.88
2019-04-06T09:14:06.973Z,13.90
2019-04-06T09:15:18.646Z,13.87
2019-04-06T09:16:26.989Z,13.91
2019-04-06T09:17:35.435Z,13.92
2019-04-06T09:18:43.879Z,13.95
2019-04-06T09:19:52.335Z,13.99
2019-04-06T09:21:00.563Z,14.04
2019-04-06T09:22:08.841Z,14.07
2019-04-06T09:23:17.334Z,14.12
2019-04-06T09:24:26.533Z,14.08
2019-04-06T09:25:35.129Z,14.13
2019-04-06T09:26:43.602Z,14.14
2019-04-06T09:27:51.890Z,14.18
2019-04-06T09:29:01.231Z,14.15
2019-04-06T09:30:10.433Z,14.20
2019-04-06T09:31:18.826Z,14.23
2019-04-06T09:32:27.054Z,14.23
2019-04-06T09:33:35.435Z,14.27
2019-04-06T09:34:44.323Z,14.30
2019-04-06T09:35:53.397Z,14.35
2019-04-06T09:37:02.086Z,14.39
2019-04-06T09:38:11.979Z,14.43
2019-04-06T09:39:20.245Z,14.48
2019-04-06T09:40:28.472Z,14.52
2019-04-06T09:41:37.139Z,14.52
2019-04-06T09:42:45.689Z,14.54
2019-04-06T09:43:54.246Z,14.59
2019-04-06T09:45:08.170Z,14.61
2019-04-06T09:46:30.662Z,14.68
2019-04-06T09:47:49.308Z,14.74
2019-04-06T09:49:08.198Z,14.80
2019-04-06T09:50:16.144Z,14.86
2019-04-06T09:51:41.000Z,14.93
2019-04-06T09:52:59.741Z,14.96
2019-04-06T09:54:22.895Z,15.00
2019-04-06T09:55:33.049Z,15.02
2019-04-06T09:56:59.255Z,15.09
2019-04-06T09:58:09.341Z,15.14
2019-04-06T09:59:37.186Z,15.14
2019-04-06T10:00:47.073Z,15.16
2019-04-06T10:02:02.769Z,15.18
2019-04-06T10:03:29.105Z,15.21
2019-04-06T10:04:55.135Z,15.24
2019-04-06T10:06:17.237Z,15.25
2019-04-06T10:07:25.145Z,15.30
2019-04-06T10:08:41.130Z,15.34
2019-04-06T10:09:51.027Z,15.35
2019-04-06T10:11:08.172Z,15.37
2019-04-06T10:12:20.556Z,15.40
2019-04-06T10:13:31.285Z,15.42
2019-04-06T10:14:40.962Z,15.44
2019-04-06T10:15:54.788Z,15.45
2019-04-06T10:17:13.952Z,15.47
2019-04-06T10:18:26.240Z,15.41
2019-04-06T10:19:39.988Z,15.42
2019-04-06T10:21:06.444Z,15.41
2019-04-06T10:22:32.321Z,15.42
2019-04-06T10:23:45.826Z,15.44
2019-04-06T10:25:01.017Z,15.40
2019-04-06T10:26:13.677Z,15.35
2019-04-06T10:27:36.753Z,15.33
2019-04-06T10:29:02.021Z,15.34
2019-04-06T10:30:13.721Z,15.35
2019-04-06T10:31:39.891Z,15.38
2019-04-06T10:33:00.317Z,15.44
2019-04-06T10:34:10.289Z,15.49
2019-04-06T10:35:36.575Z,15.57
2019-04-06T10:36:55.882Z,15.63
2019-04-06T10:38:05.808Z,15.69
2019-04-06T10:39:18.693Z,15.76
2019-04-06T10:40:45.154Z,15.82
2019-04-06T10:42:07.330Z,15.91
2019-04-06T10:43:24.274Z,16.04
2019-04-06T10:44:36.719Z,16.13
2019-04-06T10:46:00.096Z,16.16
2019-04-06T10:47:10.296Z,16.21
2019-04-06T10:48:28.855Z,16.26
2019-04-06T10:49:44.786Z,16.32
2019-04-06T10:50:58.496Z,16.36
2019-04-06T10:52:20.487Z,16.37
2019-04-06T10:53:40.327Z,16.37
2019-04-06T10:55:07.029Z,16.40
2019-04-06T10:56:18.106Z,16.37
2019-04-06T10:57:26.099Z,16.35
2019-04-06T10:58:35.738Z,16.34
2019-04-06T11:00:01.499Z,16.34
2019-04-06T11:01:25.151Z,16.34
2019-04-06T11:02:51.496Z,16.33
2019-04-06T11:04:01.364Z,16.32
2019-04-06T11:05:18.901Z,16.30
2019-04-06T11:06:41.062Z,16.28
2019-04-06T11:07:51.161Z,16.30
2019-04-06T11:09:17.196Z,16.27
2019-04-06T11:10:27.136Z,16.27
2019-04-06T11:11:35.138Z,16.26
2019-04-06T11:13:01.650Z,16.26
2019-04-06T11:14:12.108Z,16.25
2019-04-06T11:15:37.261Z,16.21
2019-04-06T11:16:48.201Z,16.20
2019-04-06T11:18:14.583Z,16.21
2019-04-06T11:19:33.192Z,16.19
2019-04-06T11:20:45.912Z,16.16
2019-04-06T11:21:54.040Z,16.16
2019-04-06T11:23:15.935Z,16.17
2019-04-06T11:24:23.727Z,16.16
2019-04-06T11:25:34.653Z,16.17
2019-04-06T11:26:43.392Z,16.15
2019-04-06T11:28:03.705Z,16.09
2019-04-06T11:29:19.586Z,16.08
2019-04-06T11:30:30.656Z,16.06
2019-04-06T11:31:43.251Z,16.01
2019-04-06T11:33:11.248Z,16.02
2019-04-06T11:34:25.661Z,15.99
2019-04-06T11:35:43.358Z,16.00
2019-04-06T11:36:55.810Z,16.02
2019-04-06T11:38:21.985Z,16.02
2019-04-06T11:39:48.287Z,16.01
2019-04-06T11:41:03.769Z,16.05
2019-04-06T11:42:13.543Z,16.06
2019-04-06T11:43:26.130Z,16.03
2019-04-06T11:44:48.149Z,15.99
2019-04-06T11:45:58.216Z,16.02
2019-04-06T11:47:09.188Z,16.02
2019-04-06T11:48:19.206Z,15.97
2019-04-06T11:49:29.886Z,15.94
2019-04-06T11:52:03.029Z,15.95
2019-04-06T11:53:19.469Z,15.92
2019-04-06T11:54:44.893Z,15.91
2019-04-06T11:55:58.523Z,15.90
2019-04-06T11:57:06.634Z,15.90
2019-04-06T11:58:28.910Z,15.90
2019-04-06T11:59:41.666Z,15.91
2019-04-06T12:00:52.411Z,15.93
2019-04-06T12:02:18.273Z,15.96
2019-04-06T12:03:37.020Z,15.98
2019-04-06T12:04:48.012Z,15.99
2019-04-06T12:05:58.237Z,16.00
2019-04-06T12:07:15.612Z,15.98
2019-04-06T12:08:34.123Z,15.98
2019-04-06T12:09:57.837Z,15.95
2019-04-06T12:11:14.276Z,15.92
2019-04-06T12:12:40.831Z,15.91
2019-04-06T12:13:54.284Z,15.90
2019-04-06T12:15:07.184Z,15.87
2019-04-06T12:16:19.847Z,15.87
2019-04-06T12:17:42.024Z,15.83
2019-04-06T12:18:54.775Z,15.78
2019-04-06T12:20:13.426Z,15.69
2019-04-06T12:21:29.407Z,15.63
2019-04-06T12:22:40.639Z,15.61
2019-04-06T12:23:59.633Z,15.59
2019-04-06T12:25:27.097Z,15.53
2019-04-06T12:26:53.161Z,15.53
2019-04-06T12:28:03.169Z,15.54
2019-04-06T12:29:19.802Z,15.49
2019-04-06T12:30:37.327Z,15.48
2019-04-06T12:31:59.135Z,15.46
2019-04-06T12:33:15.057Z,15.45
2019-04-06T12:34:27.432Z,15.47
2019-04-06T12:35:37.042Z,15.49
2019-04-06T12:37:28.898Z,15.56
2019-04-06T12:38:41.798Z,15.54
2019-04-06T12:40:00.517Z,15.58
2019-04-06T12:41:19.802Z,15.61
2019-04-06T12:42:29.686Z,15.63
2019-04-06T12:43:51.903Z,15.63
2019-04-06T12:45:09.226Z,15.62
2019-04-06T12:46:22.603Z,15.63
2019-04-06T12:47:48.419Z,15.64
2019-04-06T12:49:14.548Z,15.65
2019-04-06T12:50:40.794Z,15.63
2019-04-06T12:51:51.014Z,15.57
2019-04-06T12:52:59.165Z,15.49
2019-04-06T12:54:25.110Z,15.50
2019-04-06T12:55:33.805Z,15.49
2019-04-06T12:56:47.082Z,15.47
2019-04-06T12:58:13.034Z,15.46
2019-04-06T12:59:40.857Z,15.47
2019-04-06T13:00:54.507Z,15.46
2019-04-06T13:02:04.894Z,15.41
2019-04-06T13:03:15.077Z,15.38
2019-04-06T13:04:25.144Z,15.28
2019-04-06T13:05:33.562Z,15.23
2019-04-06T13:06:53.361Z,15.02
2019-04-06T13:08:08.864Z,14.95
2019-04-06T13:09:19.707Z,14.91
2019-04-06T13:10:30.199Z,14.86
2019-04-06T13:11:49.369Z,14.83
2019-04-06T13:13:03.719Z,14.84
2019-04-06T13:14:20.390Z,14.70
2019-04-06T13:15:33.173Z,14.59
2019-04-06T13:16:43.568Z,14.46
2019-04-06T13:17:58.280Z,14.32
2019-04-06T13:19:21.413Z,14.21
2019-04-06T13:20:41.290Z,14.21
2019-04-06T13:22:06.017Z,14.17
2019-04-06T13:23:16.313Z,14.23
2019-04-06T13:24:26.149Z,14.22
2019-04-06T13:25:53.662Z,14.23
2019-04-06T13:27:01.737Z,14.26
2019-04-06T13:28:14.789Z,14.24
2019-04-06T13:29:29.150Z,14.25
2019-04-06T13:30:44.960Z,14.24
2019-04-06T13:32:11.234Z,14.24
2019-04-06T13:33:19.367Z,14.26
2019-04-06T13:34:30.171Z,14.24
2019-04-06T13:35:56.566Z,14.14
2019-04-06T13:37:04.565Z,14.13
2019-04-06T13:38:15.115Z,14.02
2019-04-06T13:39:28.983Z,13.99
2019-04-06T13:40:43.030Z,14.04
2019-04-06T13:41:52.479Z,14.01
2019-04-06T13:43:05.189Z,14.06
2019-04-06T13:44:25.279Z,14.07
2019-04-06T13:45:36.245Z,14.04
2019-04-06T13:46:49.336Z,14.02
2019-04-06T13:48:17.446Z,14.06
2019-04-06T13:49:28.269Z,14.06
2019-04-06T13:50:54.422Z,14.11
2019-04-06T13:52:14.383Z,14.13
2019-04-06T13:53:40.164Z,14.16
2019-04-06T13:55:05.388Z,14.20
2019-04-06T13:56:13.503Z,14.23
2019-04-06T13:57:29.190Z,14.25
2019-04-06T13:58:44.546Z,14.26
2019-04-06T13:59:54.407Z,14.26
2019-04-06T14:01:14.646Z,14.27
2019-04-06T14:02:31.930Z,14.30
2019-04-06T14:03:58.178Z,14.31
2019-04-06T14:05:26.013Z,14.33
2019-04-06T14:06:48.481Z,14.34
2019-04-06T14:07:56.506Z,14.32
2019-04-06T14:09:23.280Z,14.32
2019-04-06T14:10:43.464Z,14.35
2019-04-06T14:11:53.367Z,14.35
2019-04-06T14:13:01.730Z,14.37
2019-04-06T14:14:29.851Z,14.35
2019-04-06T14:15:40.073Z,14.34
2019-04-06T14:16:51.022Z,14.34
2019-04-06T14:18:16.893Z,14.33
2019-04-06T14:19:33.247Z,14.33
2019-04-06T14:20:49.045Z,14.32
2019-04-06T14:22:07.931Z,14.32
2019-04-06T14:23:15.937Z,14.31
2019-04-06T14:24:34.952Z,14.30
2019-04-06T14:25:48.072Z,14.31
2019-04-06T14:26:57.942Z,14.30
2019-04-06T14:28:10.974Z,14.29
2019-04-06T14:29:19.203Z,14.30
2019-04-06T14:30:38.907Z,14.30
2019-04-06T14:31:54.491Z,14.32
2019-04-06T14:33:21.233Z,14.32
2019-04-06T14:34:47.480Z,14.34
2019-04-06T14:36:16.488Z,14.33
2019-04-06T14:37:25.111Z,14.32
2019-04-06T14:38:36.713Z,14.32
2019-04-06T14:39:46.892Z,14.33
2019-04-06T14:41:01.387Z,14.33
2019-04-06T14:42:27.960Z,14.33
2019-04-06T14:43:45.366Z,14.34
2019-04-06T14:44:57.971Z,14.33
2019-04-06T14:46:23.970Z,14.29
2019-04-06T14:47:49.349Z,14.28
2019-04-06T14:49:13.867Z,14.29
2019-04-06T14:50:20.867Z,14.29
2019-04-06T14:51:33.790Z,14.29
2019-04-06T14:52:43.104Z,14.29
2019-04-06T14:54:03.557Z,14.28
2019-04-06T14:55:29.399Z,14.26
2019-04-06T14:56:45.250Z,14.24
2019-04-06T14:57:57.909Z,14.23
2019-04-06T14:59:11.469Z,14.25
2019-04-06T15:00:20.835Z,14.25
2019-04-06T15:01:45.642Z,14.26
2019-04-06T15:03:01.987Z,14.24
2019-04-06T15:04:20.006Z,14.21
2019-04-06T15:05:33.742Z,14.22
2019-04-06T15:06:43.902Z,14.24
2019-04-06T15:07:57.878Z,14.20
2019-04-06T15:09:27.828Z,14.16
2019-04-06T15:10:37.764Z,14.17
2019-04-06T15:12:04.938Z,14.14
2019-04-06T15:13:18.115Z,14.15
2019-04-06T15:14:44.734Z,14.14
2019-04-06T15:16:03.815Z,14.08
2019-04-06T15:17:12.152Z,14.11
2019-04-06T15:18:32.663Z,14.10
2019-04-06T15:19:43.624Z,14.08
2019-04-06T15:21:09.994Z,14.07
2019-04-06T15:22:36.436Z,14.06